Дата Пункты Температура Давл., мм. Влажн., % Ветер Погодные явления
Воздуха Воды Направл. Скорость
20.07.19 03:00 Одесса 20.0 20.0 760 83 З 2 03 ГОДИНИ
19.07.19 09:00 Одесса 23.0 20.0 760 61 Пд-З 2 21 ГОДИНУ
19.07.19 06:00 Одесса 25.0 21.0 759 48 Пд 3 18 ГОДИН
19.07.19 03:00 Одесса 24.0 21.0 759 55 Пд 3 15 ГОДИН
19.07.19 12:00 Одесса 25.0 20.0 760 58 Пд-С 3 12 ГОДИН
19.07.19 09:00 Одесса 21.0 20.0 759 58 Пн-С 1 09 ГОДИН
19.07.19 06:00 Одесса 18.0 20.0 759 61 Пн 0 06 ГОДИН
19.07.19 03:00 Одесса 19.0 20.0 758 57 Пн-З 1 03 ГОДИНИ
18.07.19 09:00 Одесса 23.0 20.0 756 36 Пн-З 1 21 ГОДИНУ
18.07.19 06:00 Одесса 24.0 21.0 755 51 Пд 2 18 ГОДИН
18.07.19 03:00 Одесса 29.0 21.0 755 24 З 2 15 ГОДИН
18.07.19 12:00 Одесса 25.0 20.0 755 37 Пн-С 4 12 ГОДИН
18.07.19 09:00 Одесса 23.0 20.0 755 53 Пн 2 09 ГОДИН
18.07.19 06:00 Одесса 19.0 21.0 754 65 З 1 06 ГОДИН
18.07.19 03:00 Одесса 20.0 21.0 753 59 Пн-З 2 03 ГОДИНИ
17.07.19 09:00 Одесса 23.0 20.0 752 50 Пд-З 2 21 ГОДИНУ
17.07.19 06:00 Одесса 25.0 21.0 752 45 Пд 3 18 ГОДИН
17.07.19 03:00 Одесса 26.0 21.0 753 45 Пд 5 15 ГОДИН
17.07.19 12:00 Одесса 26.0 21.0 753 45 С 2 12 ГОДИН
17.07.19 09:00 Одесса 24.0 21.0 753 51 Пн-З 1 09 ГОДИН
Количество строк
1 2 3 4 5 6 7 8 9 10
Page 2 of 511